createdAt,value
2018-04-02T00:02:02.490Z,2.1
2018-04-02T00:05:02.502Z,2.1
2018-04-02T00:08:02.541Z,2.1
2018-04-02T00:11:02.655Z,2.1
2018-04-02T00:14:02.543Z,2.1
2018-04-02T00:17:02.509Z,2.1
2018-04-02T00:20:02.518Z,2.1
2018-04-02T00:23:02.535Z,2.1
2018-04-02T00:26:02.518Z,2.1
2018-04-02T00:29:03.151Z,2.1
2018-04-02T00:32:02.524Z,2.1
2018-04-02T00:35:02.514Z,2.1
2018-04-02T00:38:02.501Z,2.1
2018-04-02T00:41:02.488Z,2.1
2018-04-02T00:44:02.483Z,2.1
2018-04-02T00:47:02.514Z,2.1
2018-04-02T00:50:02.501Z,2.1
2018-04-02T00:53:02.600Z,2.1
2018-04-02T00:56:02.494Z,2.1
2018-04-02T00:59:02.509Z,2.1
2018-04-02T01:02:02.494Z,2
2018-04-02T01:05:02.470Z,2
2018-04-02T01:08:02.734Z,2
2018-04-02T01:11:02.505Z,2
2018-04-02T01:14:02.532Z,2
2018-04-02T01:17:02.522Z,2
2018-04-02T01:20:02.516Z,2
2018-04-02T01:23:02.499Z,2
2018-04-02T01:26:02.504Z,2
2018-04-02T01:29:02.527Z,2
2018-04-02T01:32:02.495Z,2
2018-04-02T01:35:03.285Z,2
2018-04-02T01:38:02.502Z,2
2018-04-02T01:41:02.555Z,2
2018-04-02T01:44:02.587Z,2
2018-04-02T01:47:02.509Z,2
2018-04-02T01:50:03.169Z,2
2018-04-02T01:53:02.465Z,2
2018-04-02T01:56:02.485Z,2
2018-04-02T01:59:02.492Z,2
2018-04-02T02:02:02.493Z,2
2018-04-02T02:05:02.483Z,2
2018-04-02T02:08:02.456Z,2
2018-04-02T02:11:02.753Z,2
2018-04-02T02:14:02.478Z,2
2018-04-02T02:17:02.463Z,2
2018-04-02T02:20:02.488Z,2
2018-04-02T02:23:02.513Z,2
2018-04-02T02:26:02.532Z,2
2018-04-02T02:29:02.468Z,2
2018-04-02T02:32:02.548Z,2
2018-04-02T02:35:03.378Z,2
2018-04-02T02:38:02.521Z,2
2018-04-02T02:41:02.532Z,2
2018-04-02T02:44:02.500Z,2
2018-04-02T02:47:02.491Z,2
2018-04-02T02:50:02.532Z,2
2018-04-02T02:53:02.465Z,2
2018-04-02T02:56:02.501Z,2
2018-04-02T02:59:02.489Z,2
2018-04-02T03:02:02.529Z,2
2018-04-02T03:05:02.547Z,2
2018-04-02T03:08:02.496Z,2
2018-04-02T03:11:02.490Z,2
2018-04-02T03:14:02.488Z,2
2018-04-02T03:17:02.528Z,2
2018-04-02T03:20:02.473Z,2
2018-04-02T03:23:02.456Z,2
2018-04-02T03:26:02.464Z,2
2018-04-02T03:29:02.447Z,2
2018-04-02T03:32:02.448Z,2
2018-04-02T03:35:02.472Z,2
2018-04-02T03:38:02.473Z,2
2018-04-02T03:41:02.462Z,2
2018-04-02T03:44:02.475Z,2
2018-04-02T03:47:02.447Z,2
2018-04-02T03:50:02.507Z,2
2018-04-02T03:53:02.450Z,2
2018-04-02T03:56:02.434Z,2
2018-04-02T03:59:02.453Z,2
2018-04-02T04:02:02.752Z,2.1
2018-04-02T04:05:02.462Z,2.1
2018-04-02T04:08:02.465Z,2.1
2018-04-02T04:11:02.450Z,2.1
2018-04-02T04:14:02.425Z,2.1
2018-04-02T04:17:02.474Z,2.1
2018-04-02T04:20:02.481Z,2.1
2018-04-02T04:23:02.474Z,2.1
2018-04-02T04:26:02.427Z,2.1
2018-04-02T04:29:02.449Z,2.1
2018-04-02T04:32:02.457Z,2.1
2018-04-02T04:35:02.441Z,2.1
2018-04-02T04:38:02.449Z,2.1
2018-04-02T04:41:02.442Z,2.1
2018-04-02T04:44:02.455Z,2.1
2018-04-02T04:47:02.421Z,2.1
2018-04-02T04:50:02.637Z,2.1
2018-04-02T04:53:02.402Z,2.1
2018-04-02T04:56:02.495Z,2.1
2018-04-02T04:59:02.404Z,2.1
2018-04-02T05:02:02.404Z,2
2018-04-02T05:05:02.445Z,2
2018-04-02T05:08:02.423Z,2
2018-04-02T05:11:02.418Z,2
2018-04-02T05:14:02.434Z,2
2018-04-02T05:17:02.471Z,2
2018-04-02T05:20:02.417Z,2
2018-04-02T05:23:02.448Z,2
2018-04-02T05:26:02.436Z,2
2018-04-02T05:29:02.437Z,2
2018-04-02T05:32:02.428Z,2
2018-04-02T05:35:02.414Z,2
2018-04-02T05:38:02.440Z,2
2018-04-02T05:41:02.226Z,2
2018-04-02T05:44:02.417Z,2
2018-04-02T05:47:02.490Z,2
2018-04-02T05:50:02.413Z,2
2018-04-02T05:53:02.385Z,2
2018-04-02T05:56:02.385Z,2
2018-04-02T05:59:02.408Z,2
2018-04-02T06:02:02.413Z,2
2018-04-02T06:05:02.467Z,2
2018-04-02T06:08:02.373Z,2
2018-04-02T06:11:02.494Z,2
2018-04-02T06:14:02.400Z,2
2018-04-02T06:17:02.406Z,2
2018-04-02T06:20:02.512Z,2
2018-04-02T06:23:02.498Z,2
2018-04-02T06:26:02.408Z,2
2018-04-02T06:29:02.429Z,2
2018-04-02T06:32:02.384Z,2
2018-04-02T06:35:02.412Z,2
2018-04-02T06:38:02.372Z,2
2018-04-02T06:41:02.405Z,2
2018-04-02T06:44:02.404Z,2
2018-04-02T06:47:02.363Z,2
2018-04-02T06:50:02.411Z,2
2018-04-02T06:53:02.399Z,2
2018-04-02T06:56:02.497Z,2
2018-04-02T06:59:02.382Z,2
2018-04-02T07:02:02.444Z,2.1
2018-04-02T07:05:02.442Z,2.1
2018-04-02T07:08:02.393Z,2.1
2018-04-02T07:11:03.350Z,2.1
2018-04-02T07:14:02.457Z,2.1
2018-04-02T07:17:02.412Z,2.1
2018-04-02T07:20:02.428Z,2.1
2018-04-02T07:23:03.040Z,2.1
2018-04-02T07:26:02.400Z,2.1
2018-04-02T07:29:02.420Z,2.1
2018-04-02T07:32:02.424Z,2.1
2018-04-02T07:35:08.158Z,2.1
2018-04-02T07:38:02.354Z,2.1
2018-04-02T07:41:02.377Z,2.1
2018-04-02T07:44:02.400Z,2.1
2018-04-02T07:47:02.441Z,2.1
2018-04-02T07:50:02.405Z,2.1
2018-04-02T07:53:02.354Z,2.1
2018-04-02T07:56:02.437Z,2.1
2018-04-02T07:59:02.361Z,2.1
2018-04-02T08:02:02.420Z,2.3
2018-04-02T08:05:02.375Z,2.3
2018-04-02T08:08:02.381Z,2.3
2018-04-02T08:11:02.388Z,2.3
2018-04-02T08:14:02.396Z,2.3
2018-04-02T08:17:02.405Z,2.3
2018-04-02T08:20:02.399Z,2.3
2018-04-02T08:23:02.376Z,2.3
2018-04-02T08:26:02.370Z,2.3
2018-04-02T08:29:02.397Z,2.3
2018-04-02T08:32:02.367Z,2.3
2018-04-02T08:35:02.414Z,2.3
2018-04-02T08:38:02.383Z,2.3
2018-04-02T08:41:02.405Z,2.3
2018-04-02T08:44:02.358Z,2.3
2018-04-02T08:47:02.344Z,2.3
2018-04-02T08:50:02.378Z,2.3
2018-04-02T08:53:02.336Z,2.3
2018-04-02T08:56:02.333Z,2.3
2018-04-02T08:59:02.361Z,2.3
2018-04-02T09:02:02.381Z,2.3
2018-04-02T09:05:02.417Z,2.3
2018-04-02T09:08:02.341Z,2.3
2018-04-02T09:11:02.320Z,2.3
2018-04-02T09:14:02.351Z,2.3
2018-04-02T09:17:02.365Z,2.3
2018-04-02T09:20:02.357Z,2.3
2018-04-02T09:23:02.383Z,2.3
2018-04-02T09:26:02.362Z,2.3
2018-04-02T09:29:02.403Z,2.3
2018-04-02T09:32:02.347Z,2.3
2018-04-02T09:35:02.360Z,2.3
2018-04-02T09:38:02.342Z,2.3
2018-04-02T09:41:02.426Z,2.3
2018-04-02T09:44:02.346Z,2.3
2018-04-02T09:47:02.307Z,2.3
2018-04-02T09:50:02.346Z,2.3
2018-04-02T09:53:02.372Z,2.3
2018-04-02T09:56:02.374Z,2.3
2018-04-02T09:59:02.408Z,2.3
2018-04-02T10:02:04.447Z,2.3
2018-04-02T10:05:04.161Z,2.3
2018-04-02T10:08:02.326Z,2.3
2018-04-02T10:11:02.359Z,2.3
2018-04-02T10:14:02.352Z,2.3
2018-04-02T10:17:02.377Z,2.3
2018-04-02T10:20:02.373Z,2.3
2018-04-02T10:23:02.344Z,2.3
2018-04-02T10:26:02.355Z,2.3
2018-04-02T10:29:02.351Z,2.3
2018-04-02T10:32:02.323Z,2.3
2018-04-02T10:35:02.370Z,2.3
2018-04-02T10:38:09.040Z,2.3
2018-04-02T10:41:02.401Z,2.3
2018-04-02T10:44:02.340Z,2.3
2018-04-02T10:47:02.373Z,2.3
2018-04-02T10:50:02.355Z,2.3
2018-04-02T12:02:56.729Z,4.8
2018-04-02T12:05:56.714Z,4.8
2018-04-02T12:08:56.707Z,4.8
2018-04-02T12:11:56.704Z,4.8
2018-04-02T12:14:56.731Z,4.8
2018-04-02T12:17:56.685Z,4.8
2018-04-02T12:20:57.804Z,4.8
2018-04-02T12:23:56.724Z,4.8
2018-04-02T12:26:56.749Z,4.8
2018-04-02T12:29:57.053Z,4.8
2018-04-02T12:32:56.733Z,4.8
2018-04-02T12:35:56.733Z,4.8
2018-04-02T12:38:56.684Z,4.8
2018-04-02T12:41:56.733Z,4.8
2018-04-02T12:44:56.737Z,4.8
2018-04-02T12:47:56.728Z,4.8
2018-04-02T12:50:56.682Z,4.8
2018-04-02T12:53:56.688Z,4.8
2018-04-02T12:56:57.023Z,4.8
2018-04-02T12:59:56.719Z,4.8
2018-04-02T13:02:56.698Z,4.2
2018-04-02T13:05:56.688Z,4.2
2018-04-02T13:08:56.713Z,4.2
2018-04-02T13:11:56.688Z,4.2
2018-04-02T13:14:56.695Z,4.2
2018-04-02T13:17:56.715Z,4.2
2018-04-02T13:20:56.725Z,4.2
2018-04-02T13:23:56.750Z,4.2
2018-04-02T13:26:56.737Z,4.2
2018-04-02T13:29:56.715Z,4.2
2018-04-02T13:32:56.703Z,4.2
2018-04-02T13:35:56.751Z,4.2
2018-04-02T13:38:56.778Z,4.2
2018-04-02T13:41:56.757Z,4.2
2018-04-02T13:44:56.720Z,4.2
2018-04-02T13:47:56.718Z,4.2
2018-04-02T13:50:56.683Z,4.2
2018-04-02T13:53:56.668Z,4.2
2018-04-02T13:56:56.734Z,4.2
2018-04-02T13:59:56.680Z,4.2
2018-04-02T14:02:56.767Z,3.5
2018-04-02T14:05:56.674Z,3.5
2018-04-02T14:08:56.811Z,3.5
2018-04-02T14:11:56.680Z,3.5
2018-04-02T14:14:56.702Z,3.5
2018-04-02T14:17:56.679Z,3.5
2018-04-02T14:20:56.678Z,3.5
2018-04-02T14:23:56.745Z,3.5
2018-04-02T14:26:56.687Z,3.5
2018-04-02T14:29:56.792Z,3.5
2018-04-02T14:32:56.901Z,3.5
2018-04-02T14:35:56.844Z,3.5
2018-04-02T14:38:56.682Z,3.5
2018-04-02T14:41:56.729Z,3.5
2018-04-02T14:44:56.688Z,3.5
2018-04-02T14:47:56.652Z,3.5
2018-04-02T14:50:56.638Z,3.5
2018-04-02T14:53:56.634Z,3.5
2018-04-02T14:56:56.742Z,3.5
2018-04-02T14:59:56.673Z,3.5
2018-04-02T15:02:56.702Z,3.5
2018-04-02T15:05:56.674Z,3.5
2018-04-02T15:08:56.640Z,3.5
2018-04-02T16:02:54.297Z,2.9
2018-04-02T17:01:34.815Z,3.6
2018-04-02T17:04:34.877Z,3.6
2018-04-02T17:07:34.834Z,3.6
2018-04-02T17:10:34.789Z,3.6
2018-04-02T17:13:34.839Z,3.6
2018-04-02T18:00:22.304Z,6.9
2018-04-02T18:03:21.728Z,6.9
2018-04-02T18:06:21.648Z,6.9
2018-04-02T18:09:21.613Z,6.9
2018-04-02T18:12:21.643Z,6.9
2018-04-02T18:15:21.600Z,6.9
2018-04-02T18:18:21.634Z,6.9
2018-04-02T18:21:21.597Z,6.9
2018-04-02T18:24:21.576Z,6.9
2018-04-02T18:27:21.578Z,6.9
2018-04-02T18:30:21.592Z,6.9
2018-04-02T18:33:21.640Z,6.9
2018-04-02T18:36:21.573Z,6.9
2018-04-02T18:39:21.636Z,6.9
2018-04-02T18:42:21.582Z,6.9
2018-04-02T18:45:21.601Z,6.9
2018-04-02T18:48:21.682Z,6.9
2018-04-02T18:51:21.608Z,6.9
2018-04-02T18:54:21.689Z,6.9
2018-04-02T18:57:21.636Z,6.9
2018-04-02T19:00:21.642Z,5.7
2018-04-02T19:03:21.603Z,5.7
2018-04-02T19:06:21.610Z,5.7
2018-04-02T19:09:21.594Z,5.7
2018-04-02T19:12:21.648Z,5.7
2018-04-02T19:15:21.633Z,5.7
2018-04-02T19:18:21.928Z,5.7
2018-04-02T19:21:21.645Z,5.7
2018-04-02T19:24:21.648Z,5.7
2018-04-02T19:27:21.592Z,5.7
2018-04-02T19:30:21.686Z,5.7
2018-04-02T19:33:21.620Z,5.7
2018-04-02T19:36:21.644Z,5.7
2018-04-02T19:39:21.677Z,5.7
2018-04-02T19:42:21.599Z,5.7
2018-04-02T19:45:21.606Z,5.7
2018-04-02T19:48:21.743Z,5.7
2018-04-02T19:51:21.613Z,5.7
2018-04-02T19:54:22.046Z,5.7
2018-04-02T19:57:21.681Z,5.7
2018-04-02T20:00:21.657Z,5
2018-04-02T20:03:21.594Z,5
2018-04-02T20:06:21.592Z,5
2018-04-02T20:09:21.623Z,5
2018-04-02T20:12:21.605Z,5
2018-04-02T20:15:21.613Z,5
2018-04-02T20:18:21.716Z,5
2018-04-02T20:21:21.599Z,5
2018-04-02T20:24:21.623Z,5
2018-04-02T20:27:21.903Z,5
2018-04-02T20:30:21.579Z,5
2018-04-02T20:33:21.691Z,5
2018-04-02T20:36:21.706Z,5
2018-04-02T20:39:21.785Z,5
2018-04-02T20:42:21.665Z,5
2018-04-02T20:45:22.017Z,5
2018-04-02T20:48:21.635Z,5
2018-04-02T20:51:21.585Z,5
2018-04-02T20:54:21.565Z,5
2018-04-02T20:57:21.792Z,5
2018-04-02T21:00:21.838Z,4.6
2018-04-02T21:03:24.293Z,4.6
2018-04-02T21:06:21.857Z,4.6
2018-04-02T21:09:21.573Z,4.6
2018-04-02T21:12:21.982Z,4.6
2018-04-02T21:15:21.590Z,4.6
2018-04-02T21:18:21.597Z,4.6
2018-04-02T21:21:21.712Z,4.6
2018-04-02T21:24:21.639Z,4.6
2018-04-02T21:27:22.286Z,4.6
2018-04-02T21:30:21.650Z,4.6
2018-04-02T21:33:21.999Z,4.6
2018-04-02T21:36:21.576Z,4.6
2018-04-02T21:39:21.614Z,4.6
2018-04-02T21:42:21.611Z,4.6
2018-04-02T21:45:21.894Z,4.6
2018-04-02T21:48:21.565Z,4.6
2018-04-02T21:51:21.654Z,4.6
2018-04-02T21:54:22.202Z,4.6
2018-04-02T21:57:21.908Z,4.6
2018-04-02T22:00:21.572Z,4.3
2018-04-02T22:03:21.579Z,4.3
2018-04-02T22:06:21.778Z,4.3
2018-04-02T22:09:21.608Z,4.3
2018-04-02T22:12:21.876Z,4.3
2018-04-02T22:15:22.320Z,4.3
2018-04-02T22:18:21.550Z,4.3
2018-04-02T22:21:21.582Z,4.3
2018-04-02T22:24:21.857Z,4.3
2018-04-02T22:27:21.650Z,4.3
2018-04-02T22:30:21.551Z,4.3
2018-04-02T22:33:21.540Z,4.3
2018-04-02T22:36:21.806Z,4.3
2018-04-02T22:39:21.551Z,4.3
2018-04-02T22:42:21.713Z,4.3
2018-04-02T22:45:21.836Z,4.3
2018-04-02T22:48:21.762Z,4.3
2018-04-02T22:51:21.538Z,4.3
2018-04-02T22:54:21.544Z,4.3
2018-04-02T22:57:21.558Z,4.3
2018-04-02T23:00:21.756Z,4
2018-04-02T23:03:21.671Z,4
2018-04-02T23:06:21.611Z,4
2018-04-02T23:09:21.567Z,4
2018-04-02T23:12:21.554Z,4
2018-04-02T23:15:21.527Z,4
2018-04-02T23:18:21.707Z,4
2018-04-02T23:21:21.552Z,4
2018-04-02T23:24:21.905Z,4
2018-04-02T23:27:21.504Z,4
2018-04-02T23:30:21.559Z,4
2018-04-02T23:33:21.696Z,4
2018-04-02T23:36:21.573Z,4
2018-04-02T23:39:21.541Z,4
2018-04-02T23:42:21.584Z,4
2018-04-02T23:45:21.616Z,4
2018-04-02T23:48:21.572Z,4
2018-04-02T23:51:21.708Z,4
2018-04-02T23:54:21.551Z,4
2018-04-02T23:57:21.573Z,4
